createdAt,value
2023-04-18T00:02:05.557Z,12.77
2023-04-18T00:04:33.079Z,13.07
2023-04-18T00:07:00.865Z,13.75
2023-04-18T00:09:29.640Z,13.20
2023-04-18T00:11:57.363Z,12.48
2023-04-18T00:14:24.727Z,13.38
2023-04-18T00:16:52.452Z,12.70
2023-04-18T00:19:19.849Z,12.93
2023-04-18T00:21:47.492Z,13.60
2023-04-18T00:24:15.031Z,14.30
2023-04-18T00:26:44.312Z,14.93
2023-04-18T00:29:11.787Z,15.52
2023-04-18T00:31:39.669Z,14.75
2023-04-18T00:34:07.080Z,13.60
2023-04-18T00:36:34.871Z,13.00
2023-04-18T00:39:02.158Z,14.43
2023-04-18T00:41:30.572Z,13.90
2023-04-18T00:43:59.692Z,14.50
2023-04-18T00:46:27.436Z,13.10
2023-04-18T00:48:54.871Z,14.75
2023-04-18T00:51:22.592Z,12.98
2023-04-18T00:53:50.452Z,16.00
2023-04-18T00:56:18.206Z,14.63
2023-04-18T00:58:45.681Z,15.88
2023-04-18T01:01:17.108Z,15.07
2023-04-18T01:06:12.179Z,15.45
2023-04-18T01:08:39.830Z,14.45
2023-04-18T01:11:07.700Z,15.88
2023-04-18T01:13:35.232Z,14.57
2023-04-18T01:16:04.901Z,14.30
2023-04-18T01:18:33.713Z,14.77
2023-04-18T01:21:02.513Z,15.63
2023-04-18T01:23:30.164Z,14.00
2023-04-18T01:25:59.570Z,14.10
2023-04-18T01:28:26.811Z,15.55
2023-04-18T01:30:56.858Z,15.38
2023-04-18T01:33:24.267Z,16.63
2023-04-18T01:36:19.345Z,14.15
2023-04-18T01:38:46.518Z,14.93
2023-04-18T01:41:15.581Z,16.10
2023-04-18T01:43:42.975Z,15.38
2023-04-18T01:46:10.618Z,14.85
2023-04-18T01:48:38.023Z,15.93
2023-04-18T01:51:05.864Z,14.30
2023-04-18T01:53:33.279Z,15.93
2023-04-18T01:56:00.957Z,15.20
2023-04-18T01:58:29.664Z,15.88
2023-04-18T02:00:57.436Z,16.30
2023-04-18T02:03:25.270Z,16.38
2023-04-18T02:05:53.163Z,15.95
2023-04-18T02:08:20.591Z,15.18
2023-04-18T02:10:48.309Z,15.65
2023-04-18T02:13:15.669Z,17.08
2023-04-18T02:15:45.437Z,15.80
2023-04-18T02:18:12.935Z,18.05
2023-04-18T02:20:40.534Z,17.85
2023-04-18T02:23:07.890Z,15.70
2023-04-18T02:25:35.965Z,16.58
2023-04-18T02:28:03.477Z,15.65
2023-04-18T02:30:31.459Z,16.05
2023-04-18T02:33:00.276Z,15.35
2023-04-18T02:35:29.688Z,15.80
2023-04-18T02:37:56.972Z,15.75
2023-04-18T02:40:24.522Z,15.95
2023-04-18T02:42:51.898Z,17.13
2023-04-18T02:45:19.693Z,16.20
2023-04-18T02:47:54.287Z,15.68
2023-04-18T02:50:25.282Z,17.17
2023-04-18T02:52:52.679Z,15.55
2023-04-18T02:55:20.506Z,17.35
2023-04-18T02:57:47.694Z,14.77
2023-04-18T03:00:15.663Z,16.27
2023-04-18T03:02:43.069Z,16.92
2023-04-18T03:05:12.526Z,15.98
2023-04-18T03:07:41.436Z,15.95
2023-04-18T03:10:09.930Z,15.35
2023-04-18T03:12:37.277Z,14.85
2023-04-18T03:15:06.589Z,16.17
2023-04-18T03:17:34.177Z,15.68
2023-04-18T03:20:01.974Z,16.08
2023-04-18T03:22:29.237Z,15.35
2023-04-18T03:24:58.470Z,15.35
2023-04-18T03:27:25.798Z,14.48
2023-04-18T03:29:53.871Z,15.45
2023-04-18T03:32:21.500Z,15.68
2023-04-18T03:34:49.398Z,15.38
2023-04-18T03:37:16.870Z,14.63
2023-04-18T03:39:44.515Z,14.10
2023-04-18T03:42:13.307Z,14.82
2023-04-18T03:44:40.912Z,14.43
2023-04-18T03:47:08.297Z,15.65
2023-04-18T03:49:35.893Z,14.80
2023-04-18T03:52:03.181Z,14.48
2023-04-18T03:54:30.690Z,15.82
2023-04-18T03:56:58.118Z,15.13
2023-04-18T03:59:27.930Z,14.50
2023-04-18T04:01:55.420Z,16.50
2023-04-18T04:04:23.310Z,13.98
2023-04-18T04:06:51.178Z,15.63
2023-04-18T04:09:19.073Z,14.38
2023-04-18T04:11:46.572Z,13.93
2023-04-18T04:14:14.533Z,14.75
2023-04-18T04:16:43.479Z,15.35
2023-04-18T04:19:11.310Z,14.95
2023-04-18T04:21:41.180Z,14.15
2023-04-18T04:24:08.885Z,13.85
2023-04-18T04:26:36.163Z,14.10
2023-04-18T04:29:06.409Z,14.35
2023-04-18T04:31:33.757Z,14.10
2023-04-18T04:34:02.995Z,14.60
2023-04-18T04:36:30.396Z,15.00
2023-04-18T04:38:58.042Z,15.35
2023-04-18T04:41:25.529Z,14.85
2023-04-18T04:43:53.155Z,14.35
2023-04-18T04:46:20.818Z,14.57
2023-04-18T04:48:48.712Z,15.07
2023-04-18T04:51:17.328Z,15.35
2023-04-18T04:53:44.985Z,14.27
2023-04-18T04:56:12.222Z,15.32
2023-04-18T04:58:40.036Z,14.43
2023-04-18T05:01:07.288Z,15.40
2023-04-18T05:03:35.389Z,15.07
2023-04-18T05:06:03.491Z,14.65
2023-04-18T05:08:32.434Z,14.77
2023-04-18T05:10:59.708Z,14.57
2023-04-18T05:13:27.356Z,14.52
2023-04-18T05:15:54.757Z,13.98
2023-04-18T05:18:22.526Z,13.20
2023-04-18T05:20:49.866Z,13.65
2023-04-18T05:23:17.456Z,15.27
2023-04-18T05:25:46.285Z,14.02
2023-04-18T05:28:13.888Z,15.32
2023-04-18T05:30:41.288Z,15.00
2023-04-18T05:33:09.055Z,15.35
2023-04-18T05:35:36.611Z,13.50
2023-04-18T05:38:04.331Z,12.85
2023-04-18T05:40:31.606Z,15.10
2023-04-18T05:43:00.649Z,13.80
2023-04-18T05:45:28.016Z,15.10
2023-04-18T05:47:58.640Z,14.52
2023-04-18T05:50:26.038Z,14.15
2023-04-18T05:52:53.744Z,14.00
2023-04-18T05:55:21.251Z,13.90
2023-04-18T05:57:48.908Z,13.77
2023-04-18T06:00:18.675Z,14.85
2023-04-18T06:02:46.849Z,14.07
2023-04-18T06:05:14.513Z,13.00
2023-04-18T06:07:42.771Z,13.13
2023-04-18T06:10:10.173Z,13.18
2023-04-18T06:12:37.815Z,13.52
2023-04-18T06:15:06.725Z,11.43
2023-04-18T06:17:35.943Z,12.55
2023-04-18T06:20:03.802Z,13.23
2023-04-18T06:22:31.395Z,12.52
2023-04-18T06:24:58.719Z,13.85
2023-04-18T06:27:31.387Z,11.82
2023-04-18T06:29:59.156Z,11.73
2023-04-18T06:32:26.834Z,13.25
2023-04-18T06:34:55.502Z,12.35
2023-04-18T06:37:26.270Z,12.98
2023-04-18T06:39:53.474Z,11.80
2023-04-18T06:42:22.579Z,12.77
2023-04-18T06:44:50.237Z,11.30
2023-04-18T06:47:18.130Z,11.75
2023-04-18T06:49:45.479Z,12.15
2023-04-18T06:52:14.716Z,10.73
2023-04-18T06:54:41.967Z,13.07
2023-04-18T06:57:09.815Z,12.00
2023-04-18T06:59:37.273Z,12.40
2023-04-18T07:02:05.213Z,11.57
2023-04-18T07:04:35.115Z,12.65
2023-04-18T07:07:03.092Z,11.88
2023-04-18T07:09:31.794Z,11.18
2023-04-18T07:11:59.521Z,12.57
2023-04-18T07:14:26.970Z,11.02
2023-04-18T07:16:54.803Z,12.27
2023-04-18T07:19:22.176Z,13.20
2023-04-18T07:21:50.041Z,12.38
2023-04-18T07:24:17.378Z,11.90
2023-04-18T07:26:46.525Z,11.82
2023-04-18T07:29:13.708Z,13.63
2023-04-18T07:31:41.664Z,13.18
2023-04-18T07:34:08.995Z,12.57
2023-04-18T07:36:36.924Z,13.38
2023-04-18T07:39:04.226Z,14.77
2023-04-18T07:41:31.874Z,13.98
2023-04-18T07:44:00.685Z,14.50
2023-04-18T07:46:28.757Z,13.05
2023-04-18T07:48:56.114Z,13.35
2023-04-18T07:51:23.613Z,13.50
2023-04-18T07:53:50.948Z,13.00
2023-04-18T07:56:19.273Z,12.38
2023-04-18T07:58:46.611Z,11.85
2023-04-18T08:01:15.813Z,13.13
2023-04-18T08:03:43.196Z,12.60
2023-04-18T08:06:11.000Z,10.40
2023-04-18T08:08:38.310Z,12.32
2023-04-18T08:11:06.283Z,12.50
2023-04-18T08:13:33.535Z,13.13
2023-04-18T08:16:01.105Z,12.43
2023-04-18T08:18:29.782Z,12.50
2023-04-18T08:20:57.640Z,13.07
2023-04-18T08:23:24.995Z,12.75
2023-04-18T08:25:52.644Z,13.63
2023-04-18T08:28:19.966Z,13.65
2023-04-18T08:30:47.731Z,12.43
2023-04-18T08:33:15.191Z,12.23
2023-04-18T08:35:44.206Z,11.02
2023-04-18T08:38:11.501Z,13.48
2023-04-18T08:40:39.117Z,11.52
2023-04-18T08:43:07.672Z,12.70
2023-04-18T08:45:37.689Z,12.70
2023-04-18T08:48:05.513Z,11.80
2023-04-18T08:50:33.510Z,12.35
2023-04-18T08:53:02.361Z,13.07
2023-04-18T08:55:30.011Z,13.13
2023-04-18T08:57:57.386Z,12.48
2023-04-18T09:00:25.353Z,13.48
2023-04-18T09:02:53.886Z,11.27
2023-04-18T09:05:21.992Z,11.30
2023-04-18T09:07:50.578Z,10.43
2023-04-18T09:10:28.583Z,11.35
2023-04-18T09:12:57.104Z,12.68
2023-04-18T09:15:26.275Z,11.38
2023-04-18T09:17:54.646Z,11.02
2023-04-18T09:20:30.939Z,12.50
2023-04-18T09:22:58.225Z,11.50
2023-04-18T09:25:29.434Z,11.38
2023-04-18T09:27:56.929Z,11.93
2023-04-18T09:30:37.091Z,11.45
2023-04-18T09:33:06.548Z,10.75
2023-04-18T09:35:34.209Z,12.27
2023-04-18T09:38:01.943Z,11.43
2023-04-18T09:40:31.802Z,11.80
2023-04-18T09:42:59.240Z,10.35
2023-04-18T09:45:27.502Z,12.35
2023-04-18T09:47:55.232Z,11.82
2023-04-18T09:50:23.102Z,11.70
2023-04-18T09:52:50.506Z,13.20
2023-04-18T09:55:19.497Z,12.85
2023-04-18T09:57:48.937Z,12.05
2023-04-18T10:00:22.349Z,12.18
2023-04-18T10:02:57.862Z,12.82
2023-04-18T10:05:27.350Z,12.00
2023-04-18T10:07:55.225Z,11.85
2023-04-18T10:10:23.627Z,11.23
2023-04-18T10:12:54.862Z,13.00
2023-04-18T10:15:24.426Z,12.95
2023-04-18T10:18:03.373Z,11.25
2023-04-18T10:20:33.638Z,13.20
2023-04-18T10:23:41.814Z,12.60
2023-04-18T10:26:11.972Z,11.75
2023-04-18T10:28:53.963Z,12.70
2023-04-18T10:31:22.899Z,12.40
2023-04-18T10:34:03.969Z,13.27
2023-04-18T10:36:34.780Z,12.77
2023-04-18T10:39:19.491Z,14.45
2023-04-18T10:41:50.752Z,13.57
2023-04-18T10:44:23.361Z,13.00
2023-04-18T10:47:20.180Z,11.90
2023-04-18T10:50:00.737Z,12.23
2023-04-18T10:52:28.607Z,12.77
2023-04-18T10:55:05.663Z,11.65
2023-04-18T10:57:41.790Z,12.07
2023-04-18T11:00:16.536Z,11.85
2023-04-18T11:02:52.785Z,12.82
2023-04-18T11:05:22.942Z,12.40
2023-04-18T11:07:53.484Z,13.90
2023-04-18T11:10:23.468Z,13.30
2023-04-18T11:12:52.596Z,14.38
2023-04-18T11:15:23.592Z,11.88
2023-04-18T11:17:59.764Z,14.00
2023-04-18T11:20:27.765Z,13.25
2023-04-18T11:22:57.021Z,13.93
2023-04-18T11:25:26.644Z,13.73
2023-04-18T11:27:54.835Z,14.35
2023-04-18T11:30:23.714Z,15.75
2023-04-18T11:32:53.361Z,13.10
2023-04-18T11:35:20.609Z,14.52
2023-04-18T11:37:49.926Z,14.57
2023-04-18T11:40:36.394Z,13.85
2023-04-18T11:43:27.106Z,15.77
2023-04-18T11:46:37.492Z,14.98
2023-04-18T11:51:35.013Z,14.23
2023-04-18T11:54:04.305Z,13.13
2023-04-18T11:56:33.501Z,14.70
2023-04-18T11:59:09.008Z,14.90
2023-04-18T12:01:38.325Z,15.85
2023-04-18T12:04:07.296Z,15.90
2023-04-18T12:06:47.951Z,15.40
2023-04-18T12:09:15.850Z,15.02
2023-04-18T12:11:43.922Z,16.20
2023-04-18T12:14:19.902Z,15.85
2023-04-18T12:16:51.045Z,15.00
2023-04-18T12:19:18.823Z,15.73
2023-04-18T12:21:59.681Z,14.68
2023-04-18T12:24:27.342Z,18.30
2023-04-18T12:26:55.578Z,16.05
2023-04-18T12:29:22.870Z,16.60
2023-04-18T12:31:52.175Z,17.60
2023-04-18T12:34:19.660Z,17.40
2023-04-18T12:36:47.361Z,17.77
2023-04-18T12:39:14.739Z,18.00
2023-04-18T12:41:43.457Z,18.00
2023-04-18T12:44:10.824Z,17.70
2023-04-18T12:46:38.569Z,18.08
2023-04-18T12:49:08.356Z,17.05
2023-04-18T12:51:35.988Z,18.98
2023-04-18T12:54:03.480Z,19.00
2023-04-18T12:56:31.112Z,18.40
2023-04-18T12:58:58.609Z,17.80
2023-04-18T13:01:26.651Z,19.85
2023-04-18T13:04:08.371Z,18.20
2023-04-18T13:06:41.506Z,19.55
2023-04-18T13:09:08.916Z,20.58
2023-04-18T13:11:36.657Z,18.90
2023-04-18T13:14:04.007Z,19.52
2023-04-18T13:16:31.707Z,19.58
2023-04-18T13:18:59.088Z,18.98
2023-04-18T13:21:26.690Z,19.63
2023-04-18T13:23:55.633Z,19.80
2023-04-18T13:26:23.532Z,17.23
2023-04-18T13:28:50.863Z,17.40
2023-04-18T13:31:18.910Z,19.23
2023-04-18T13:33:46.138Z,16.65
2023-04-18T13:36:13.996Z,18.65
2023-04-18T13:38:41.847Z,17.40
2023-04-18T13:41:13.238Z,16.83
2023-04-18T13:43:40.891Z,17.75
2023-04-18T13:46:08.564Z,17.27
2023-04-18T13:48:35.997Z,17.98
2023-04-18T13:51:03.759Z,18.55
2023-04-18T13:53:31.302Z,18.08
2023-04-18T13:55:59.119Z,17.05
2023-04-18T13:58:28.073Z,17.60
2023-04-18T14:00:55.778Z,17.88
2023-04-18T14:03:26.372Z,17.23
2023-04-18T14:05:54.197Z,16.42
2023-04-18T14:08:21.828Z,17.15
2023-04-18T14:10:49.908Z,18.10
2023-04-18T14:13:17.372Z,16.10
2023-04-18T14:15:46.409Z,16.90
2023-04-18T14:18:13.832Z,18.17
2023-04-18T14:20:41.514Z,17.75
2023-04-18T14:23:08.815Z,16.73
2023-04-18T14:25:36.690Z,17.70
2023-04-18T14:28:06.221Z,16.58
2023-04-18T14:30:33.805Z,16.30
2023-04-18T14:33:03.308Z,16.88
2023-04-18T14:35:30.889Z,16.50
2023-04-18T14:37:58.427Z,16.70
2023-04-18T14:40:27.166Z,15.63
2023-04-18T14:42:54.760Z,15.45
2023-04-18T14:45:22.467Z,15.80
2023-04-18T14:47:49.737Z,16.13
2023-04-18T14:50:19.141Z,16.90
2023-04-18T14:52:46.488Z,15.48
2023-04-18T14:55:14.160Z,15.50
2023-04-18T14:57:41.480Z,15.77
2023-04-18T15:00:09.924Z,15.73
2023-04-18T15:02:37.512Z,16.52
2023-04-18T15:05:06.302Z,14.95
2023-04-18T15:07:35.265Z,15.40
2023-04-18T15:10:02.914Z,14.57
2023-04-18T15:12:30.130Z,15.30
2023-04-18T15:14:59.490Z,15.23
2023-04-18T15:17:26.865Z,15.35
2023-04-18T15:19:54.615Z,13.77
2023-04-18T15:22:22.110Z,16.08
2023-04-18T15:24:51.139Z,15.07
2023-04-18T15:27:18.405Z,13.82
2023-04-18T15:29:46.169Z,14.98
2023-04-18T15:32:13.598Z,15.40
2023-04-18T15:34:41.364Z,13.88
2023-04-18T15:37:08.828Z,15.38
2023-04-18T15:39:36.637Z,14.68
2023-04-18T15:42:06.338Z,14.65
2023-04-18T15:44:34.000Z,15.88
2023-04-18T15:47:01.545Z,15.35
2023-04-18T15:49:29.115Z,14.65
2023-04-18T15:51:56.456Z,14.10
2023-04-18T15:54:24.097Z,14.23
2023-04-18T15:56:51.431Z,14.05
2023-04-18T15:59:20.506Z,13.63
2023-04-18T16:01:47.815Z,13.88
2023-04-18T16:04:16.230Z,13.32
2023-04-18T16:06:43.689Z,14.13
2023-04-18T16:09:11.255Z,14.02
2023-04-18T16:11:38.488Z,14.60
2023-04-18T16:14:06.187Z,15.18
2023-04-18T16:16:34.948Z,14.80
2023-04-18T16:19:02.526Z,14.65
2023-04-18T16:21:29.901Z,13.55
2023-04-18T16:23:58.523Z,14.43
2023-04-18T16:26:25.977Z,13.85
2023-04-18T16:28:53.497Z,14.15
2023-04-18T16:31:20.843Z,14.15
2023-04-18T16:33:50.053Z,15.00
2023-04-18T16:36:17.403Z,14.10
2023-04-18T16:38:45.178Z,14.63
2023-04-18T16:41:12.573Z,13.80
2023-04-18T16:43:40.309Z,14.32
2023-04-18T16:46:11.374Z,13.48
2023-04-18T16:48:39.149Z,14.75
2023-04-18T16:51:09.187Z,14.85
2023-04-18T16:53:36.906Z,15.48
2023-04-18T16:56:04.636Z,14.85
2023-04-18T16:58:32.259Z,13.85
2023-04-18T17:01:02.230Z,15.52
2023-04-18T17:03:30.473Z,15.20
2023-04-18T17:05:58.013Z,14.82
2023-04-18T17:08:27.223Z,15.82
2023-04-18T17:10:55.060Z,14.88
2023-04-18T17:13:22.786Z,16.02
2023-04-18T17:15:50.520Z,15.30
2023-04-18T17:18:18.626Z,15.63
2023-04-18T17:20:45.854Z,15.68
2023-04-18T17:23:13.608Z,15.40
2023-04-18T17:25:42.267Z,15.40
2023-04-18T17:28:10.297Z,14.02
2023-04-18T17:30:40.066Z,15.05
2023-04-18T17:33:08.273Z,15.60
2023-04-18T17:35:35.603Z,14.73
2023-04-18T17:38:03.656Z,15.40
2023-04-18T17:40:31.837Z,16.00
2023-04-18T17:43:01.192Z,15.75
2023-04-18T17:45:28.440Z,15.80
2023-04-18T17:47:56.197Z,15.40
2023-04-18T17:50:23.701Z,15.02
2023-04-18T17:52:51.561Z,16.13
2023-04-18T17:55:19.041Z,15.77
2023-04-18T17:57:46.881Z,15.93
2023-04-18T18:00:16.778Z,17.48
2023-04-18T18:02:44.816Z,15.63
2023-04-18T18:05:12.219Z,15.93
2023-04-18T18:07:40.378Z,16.00
2023-04-18T18:10:09.643Z,16.30
2023-04-18T18:12:37.300Z,15.60
2023-04-18T18:15:05.791Z,16.23
2023-04-18T18:17:35.303Z,14.85
2023-04-18T18:20:02.691Z,17.38
2023-04-18T18:22:30.551Z,16.13
2023-04-18T18:24:58.099Z,16.58
2023-04-18T18:27:26.138Z,16.80
2023-04-18T18:29:53.547Z,16.35
2023-04-18T18:32:21.164Z,15.10
2023-04-18T18:34:49.940Z,15.65
2023-04-18T18:37:17.662Z,16.60
2023-04-18T18:39:44.910Z,16.80
2023-04-18T18:42:12.662Z,16.75
2023-04-18T18:44:39.934Z,17.00
2023-04-18T18:47:07.908Z,15.95
2023-04-18T18:49:35.864Z,16.42
2023-04-18T18:52:05.319Z,16.67
2023-04-18T18:54:32.701Z,16.02
2023-04-18T18:57:00.787Z,16.60
2023-04-18T18:59:28.044Z,16.85
2023-04-18T19:01:56.406Z,17.13
2023-04-18T19:04:25.141Z,16.67
2023-04-18T19:06:53.306Z,15.50
2023-04-18T19:09:22.468Z,17.23
2023-04-18T19:11:50.080Z,17.58
2023-04-18T19:14:17.414Z,16.60
2023-04-18T19:16:45.251Z,15.88
2023-04-18T19:19:13.238Z,15.70
2023-04-18T19:21:41.459Z,16.15
2023-04-18T19:24:08.992Z,17.48
2023-04-18T19:26:38.320Z,17.58
2023-04-18T19:29:06.605Z,17.50
2023-04-18T19:31:34.679Z,16.23
2023-04-18T19:34:02.193Z,16.27
2023-04-18T19:36:30.079Z,16.15
2023-04-18T19:38:57.361Z,18.30
2023-04-18T19:41:28.544Z,18.70
2023-04-18T19:43:57.748Z,16.65
2023-04-18T19:46:25.570Z,16.70
2023-04-18T19:48:53.181Z,18.05
2023-04-18T19:51:20.977Z,17.52
2023-04-18T19:53:48.578Z,17.58
2023-04-18T19:56:16.196Z,17.05
2023-04-18T19:58:43.684Z,17.38
2023-04-18T20:01:14.067Z,17.23
2023-04-18T20:03:44.581Z,17.55
2023-04-18T20:06:13.113Z,17.00
2023-04-18T20:08:41.414Z,17.80
2023-04-18T20:11:10.447Z,18.23
2023-04-18T20:13:38.000Z,15.90
2023-04-18T20:16:07.478Z,16.90
2023-04-18T20:18:38.057Z,16.35
2023-04-18T20:21:07.132Z,17.00
2023-04-18T20:23:34.650Z,16.90
2023-04-18T20:26:02.735Z,17.17
2023-04-18T20:28:30.475Z,15.77
2023-04-18T20:30:58.228Z,16.80
2023-04-18T20:33:25.885Z,16.83
2023-04-18T20:35:55.384Z,17.42
2023-04-18T20:38:23.665Z,17.67
2023-04-18T20:40:53.083Z,15.88
2023-04-18T20:43:20.591Z,17.08
2023-04-18T20:45:48.750Z,16.10
2023-04-18T20:48:16.155Z,16.00
2023-04-18T20:50:43.830Z,15.10
2023-04-18T20:53:12.579Z,15.77
2023-04-18T20:55:40.147Z,16.10
2023-04-18T20:58:07.646Z,16.02
2023-04-18T21:00:35.500Z,16.25
2023-04-18T21:03:03.090Z,16.08
2023-04-18T21:05:32.554Z,15.80
2023-04-18T21:07:59.845Z,15.95
2023-04-18T21:10:29.419Z,16.50
2023-04-18T21:12:56.722Z,15.50
2023-04-18T21:15:24.771Z,16.83
2023-04-18T21:17:52.333Z,16.20
2023-04-18T21:20:20.431Z,16.35
2023-04-18T21:22:47.672Z,16.80
2023-04-18T21:25:15.569Z,16.90
2023-04-18T21:27:44.256Z,15.80
2023-04-18T21:30:12.973Z,14.95
2023-04-18T21:32:40.514Z,15.82
2023-04-18T21:35:09.134Z,14.20
2023-04-18T21:37:36.581Z,14.10
2023-04-18T21:40:05.568Z,14.63
2023-04-18T21:42:33.014Z,14.32
2023-04-18T21:45:02.188Z,13.35
2023-04-18T21:47:29.899Z,13.93
2023-04-18T21:49:57.794Z,13.73
2023-04-18T21:52:25.285Z,12.93
2023-04-18T21:54:53.197Z,12.82
2023-04-18T21:57:20.549Z,12.85
2023-04-18T21:59:48.744Z,12.65
2023-04-18T22:02:17.600Z,12.77
2023-04-18T22:04:45.359Z,13.27
2023-04-18T22:07:12.752Z,12.70
2023-04-18T22:09:40.550Z,12.70
2023-04-18T22:12:08.262Z,12.65
2023-04-18T22:14:36.177Z,14.20
2023-04-18T22:17:03.512Z,13.10
2023-04-18T22:19:33.084Z,13.15
2023-04-18T22:22:00.607Z,12.32
2023-04-18T22:24:28.385Z,12.88
2023-04-18T22:26:55.952Z,11.70
2023-04-18T22:29:23.630Z,13.45
2023-04-18T22:31:51.101Z,12.60
2023-04-18T22:34:19.169Z,11.70
2023-04-18T22:36:48.019Z,11.07
2023-04-18T22:39:16.051Z,10.98
2023-04-18T22:41:43.242Z,11.10
2023-04-18T22:44:10.850Z,12.00
2023-04-18T22:46:38.573Z,10.48
2023-04-18T22:49:06.545Z,11.07
2023-04-18T22:51:33.958Z,10.77
2023-04-18T22:54:03.387Z,10.90
2023-04-18T22:56:30.785Z,10.38
2023-04-18T22:58:58.537Z,10.93
2023-04-18T23:01:25.819Z,10.63
2023-04-18T23:03:53.967Z,9.32
2023-04-18T23:06:21.496Z,10.27
2023-04-18T23:08:50.143Z,9.48
2023-04-18T23:11:18.852Z,10.35
2023-04-18T23:13:46.629Z,10.15
2023-04-18T23:16:14.435Z,10.02
2023-04-18T23:18:47.797Z,9.80
2023-04-18T23:21:21.095Z,11.07
2023-04-18T23:23:54.556Z,10.15
2023-04-18T23:26:24.524Z,9.98
2023-04-18T23:28:52.552Z,9.40
2023-04-18T23:31:19.891Z,10.13
2023-04-18T23:33:47.619Z,9.95
2023-04-18T23:36:14.857Z,10.60
2023-04-18T23:38:42.793Z,11.27
2023-04-18T23:41:10.100Z,10.55
2023-04-18T23:43:39.443Z,11.18
2023-04-18T23:46:06.742Z,11.15
2023-04-18T23:48:34.353Z,10.82
2023-04-18T23:51:01.642Z,10.93
2023-04-18T23:53:29.340Z,10.88
2023-04-18T23:55:56.745Z,10.65
2023-04-18T23:58:24.700Z,10.05
